sensor_id;sensor_type;location;lat;lon;timestamp;temperature;humidity
8487;DHT22;4280;50.534;8.708;2022-10-17T00:50:06;14.30;99.90
8487;DHT22;4280;50.534;8.708;2022-10-17T00:52:37;14.10;99.90
8487;DHT22;4280;50.534;8.708;2022-10-17T00:55:09;14.10;99.90
8487;DHT22;4280;50.534;8.708;2022-10-17T00:57:42;14.10;99.90
8487;DHT22;4280;50.534;8.708;2022-10-17T01:00:14;14.10;99.90
8487;DHT22;4280;50.534;8.708;2022-10-17T01:02:45;14.10;99.90
8487;DHT22;4280;50.534;8.708;2022-10-17T01:05:18;14.00;99.90
8487;DHT22;4280;50.534;8.708;2022-10-17T01:07:49;14.00;99.90
8487;DHT22;4280;50.534;8.708;2022-10-17T01:10:21;14.00;99.90
8487;DHT22;4280;50.534;8.708;2022-10-17T01:12:58;14.00;99.90
8487;DHT22;4280;50.534;8.708;2022-10-17T01:15:34;14.00;99.90
8487;DHT22;4280;50.534;8.708;2022-10-17T01:18:17;14.00;99.90
8487;DHT22;4280;50.534;8.708;2022-10-17T01:23:53;13.80;99.90
8487;DHT22;4280;50.534;8.708;2022-10-17T01:26:46;13.80;99.90
8487;DHT22;4280;50.534;8.708;2022-10-17T01:29:32;13.80;99.90
8487;DHT22;4280;50.534;8.708;2022-10-17T01:32:11;13.80;99.90
8487;DHT22;4280;50.534;8.708;2022-10-17T01:34:45;13.70;99.90
8487;DHT22;4280;50.534;8.708;2022-10-17T01:37:22;13.70;99.90
8487;DHT22;4280;50.534;8.708;2022-10-17T01:39:58;13.70;99.90
8487;DHT22;4280;50.534;8.708;2022-10-17T01:42:32;13.70;99.90
8487;DHT22;4280;50.534;8.708;2022-10-17T01:45:06;13.70;99.90
8487;DHT22;4280;50.534;8.708;2022-10-17T01:47:41;13.60;99.90
8487;DHT22;4280;50.534;8.708;2022-10-17T01:50:13;13.60;99.90
8487;DHT22;4280;50.534;8.708;2022-10-17T01:52:46;13.70;99.90
8487;DHT22;4280;50.534;8.708;2022-10-17T01:55:20;13.70;99.90
8487;DHT22;4280;50.534;8.708;2022-10-17T01:57:54;13.60;99.90
8487;DHT22;4280;50.534;8.708;2022-10-17T02:00:26;13.60;99.90
8487;DHT22;4280;50.534;8.708;2022-10-17T02:03:00;13.60;99.90
8487;DHT22;4280;50.534;8.708;2022-10-17T02:05:34;13.50;99.90
8487;DHT22;4280;50.534;8.708;2022-10-17T02:08:06;13.60;99.90
8487;DHT22;4280;50.534;8.708;2022-10-17T02:10:38;13.50;99.90
8487;DHT22;4280;50.534;8.708;2022-10-17T02:13:11;13.50;99.90
8487;DHT22;4280;50.534;8.708;2022-10-17T02:15:58;13.60;99.90
8487;DHT22;4280;50.534;8.708;2022-10-17T02:18:50;13.50;99.90
8487;DHT22;4280;50.534;8.708;2022-10-17T02:21:32;13.50;99.90
8487;DHT22;4280;50.534;8.708;2022-10-17T02:24:05;13.50;99.90
8487;DHT22;4280;50.534;8.708;2022-10-17T02:26:40;13.50;99.90
8487;DHT22;4280;50.534;8.708;2022-10-17T02:29:13;13.40;99.90
8487;DHT22;4280;50.534;8.708;2022-10-17T02:31:46;13.40;99.90
8487;DHT22;4280;50.534;8.708;2022-10-17T02:34:21;13.40;99.90
8487;DHT22;4280;50.534;8.708;2022-10-17T02:36:55;13.40;99.90
8487;DHT22;4280;50.534;8.708;2022-10-17T02:39:27;13.40;99.90
8487;DHT22;4280;50.534;8.708;2022-10-17T02:41:59;13.40;99.90
8487;DHT22;4280;50.534;8.708;2022-10-17T02:44:31;13.40;99.90
8487;DHT22;4280;50.534;8.708;2022-10-17T02:47:02;13.40;99.90
8487;DHT22;4280;50.534;8.708;2022-10-17T02:49:37;13.40;99.90
8487;DHT22;4280;50.534;8.708;2022-10-17T02:52:09;13.40;99.90
8487;DHT22;4280;50.534;8.708;2022-10-17T02:54:42;13.40;99.90
8487;DHT22;4280;50.534;8.708;2022-10-17T02:57:15;13.40;99.90
8487;DHT22;4280;50.534;8.708;2022-10-17T02:59:47;13.40;99.90
8487;DHT22;4280;50.534;8.708;2022-10-17T03:02:18;13.40;99.90
8487;DHT22;4280;50.534;8.708;2022-10-17T03:04:50;13.30;99.90
8487;DHT22;4280;50.534;8.708;2022-10-17T03:07:21;13.30;99.90
8487;DHT22;4280;50.534;8.708;2022-10-17T03:09:51;13.30;99.90
8487;DHT22;4280;50.534;8.708;2022-10-17T03:12:21;13.30;99.90
8487;DHT22;4280;50.534;8.708;2022-10-17T03:14:52;13.40;99.90
8487;DHT22;4280;50.534;8.708;2022-10-17T03:17:22;13.30;99.90
8487;DHT22;4280;50.534;8.708;2022-10-17T03:19:55;13.20;99.90
8487;DHT22;4280;50.534;8.708;2022-10-17T03:22:25;13.20;99.90
8487;DHT22;4280;50.534;8.708;2022-10-17T03:24:57;13.10;99.90
8487;DHT22;4280;50.534;8.708;2022-10-17T03:27:27;13.10;99.90
8487;DHT22;4280;50.534;8.708;2022-10-17T03:29:57;13.10;99.90
8487;DHT22;4280;50.534;8.708;2022-10-17T03:32:29;13.10;99.90
8487;DHT22;4280;50.534;8.708;2022-10-17T03:35:04;13.10;99.90
8487;DHT22;4280;50.534;8.708;2022-10-17T03:37:38;13.10;99.90
8487;DHT22;4280;50.534;8.708;2022-10-17T03:40:08;13.00;99.90
8487;DHT22;4280;50.534;8.708;2022-10-17T03:42:39;13.00;99.90
8487;DHT22;4280;50.534;8.708;2022-10-17T03:45:09;13.00;99.90
8487;DHT22;4280;50.534;8.708;2022-10-17T03:47:40;13.00;99.90
8487;DHT22;4280;50.534;8.708;2022-10-17T03:50:14;13.00;99.90
8487;DHT22;4280;50.534;8.708;2022-10-17T03:52:45;13.00;99.90
8487;DHT22;4280;50.534;8.708;2022-10-17T03:55:16;13.00;99.90
8487;DHT22;4280;50.534;8.708;2022-10-17T03:57:46;13.00;99.90
8487;DHT22;4280;50.534;8.708;2022-10-17T04:00:18;13.00;99.90
8487;DHT22;4280;50.534;8.708;2022-10-17T04:02:54;13.10;99.90
8487;DHT22;4280;50.534;8.708;2022-10-17T04:05:27;13.00;99.90
8487;DHT22;4280;50.534;8.708;2022-10-17T04:07:57;13.00;99.90
8487;DHT22;4280;50.534;8.708;2022-10-17T04:10:47;13.00;99.90
8487;DHT22;4280;50.534;8.708;2022-10-17T04:13:17;13.00;99.90
8487;DHT22;4280;50.534;8.708;2022-10-17T04:15:52;13.00;99.90
8487;DHT22;4280;50.534;8.708;2022-10-17T04:18:23;13.00;99.90
8487;DHT22;4280;50.534;8.708;2022-10-17T04:20:56;13.00;99.90
8487;DHT22;4280;50.534;8.708;2022-10-17T04:23:26;13.10;99.90
8487;DHT22;4280;50.534;8.708;2022-10-17T04:26:02;13.00;99.90
8487;DHT22;4280;50.534;8.708;2022-10-17T04:28:33;13.10;99.90
8487;DHT22;4280;50.534;8.708;2022-10-17T04:31:06;13.10;99.90
8487;DHT22;4280;50.534;8.708;2022-10-17T04:33:57;13.00;99.90
8487;DHT22;4280;50.534;8.708;2022-10-17T04:36:29;13.00;99.90
8487;DHT22;4280;50.534;8.708;2022-10-17T04:39:00;13.00;99.90
8487;DHT22;4280;50.534;8.708;2022-10-17T04:41:32;13.00;99.90
8487;DHT22;4280;50.534;8.708;2022-10-17T04:44:01;13.00;99.90
8487;DHT22;4280;50.534;8.708;2022-10-17T04:46:36;13.00;99.90
8487;DHT22;4280;50.534;8.708;2022-10-17T04:49:06;13.00;99.90
8487;DHT22;4280;50.534;8.708;2022-10-17T04:51:40;13.00;99.90
8487;DHT22;4280;50.534;8.708;2022-10-17T04:54:20;13.00;99.90
8487;DHT22;4280;50.534;8.708;2022-10-17T04:57:00;13.00;99.90
8487;DHT22;4280;50.534;8.708;2022-10-17T04:59:31;13.00;99.90
8487;DHT22;4280;50.534;8.708;2022-10-17T05:02:21;13.00;99.90
8487;DHT22;4280;50.534;8.708;2022-10-17T05:04:51;13.00;99.90
8487;DHT22;4280;50.534;8.708;2022-10-17T05:07:24;13.00;99.90
8487;DHT22;4280;50.534;8.708;2022-10-17T05:09:57;13.00;99.90
8487;DHT22;4280;50.534;8.708;2022-10-17T05:12:28;13.00;99.90
8487;DHT22;4280;50.534;8.708;2022-10-17T05:14:58;13.00;99.90
8487;DHT22;4280;50.534;8.708;2022-10-17T05:17:29;13.00;99.90
8487;DHT22;4280;50.534;8.708;2022-10-17T05:19:59;12.90;99.90
8487;DHT22;4280;50.534;8.708;2022-10-17T05:22:33;12.90;99.90
8487;DHT22;4280;50.534;8.708;2022-10-17T05:25:04;12.90;99.90
8487;DHT22;4280;50.534;8.708;2022-10-17T05:27:35;12.90;99.90
8487;DHT22;4280;50.534;8.708;2022-10-17T05:30:06;12.80;99.90
8487;DHT22;4280;50.534;8.708;2022-10-17T05:32:38;12.80;99.90
8487;DHT22;4280;50.534;8.708;2022-10-17T05:35:08;12.70;99.90
8487;DHT22;4280;50.534;8.708;2022-10-17T05:37:41;12.80;99.90
8487;DHT22;4280;50.534;8.708;2022-10-17T05:40:11;12.90;99.90
8487;DHT22;4280;50.534;8.708;2022-10-17T05:42:44;12.90;99.90
8487;DHT22;4280;50.534;8.708;2022-10-17T05:45:17;12.90;99.90
8487;DHT22;4280;50.534;8.708;2022-10-17T05:47:47;13.00;99.90
8487;DHT22;4280;50.534;8.708;2022-10-17T05:50:17;13.00;99.90
8487;DHT22;4280;50.534;8.708;2022-10-17T05:53:10;13.00;99.90
8487;DHT22;4280;50.534;8.708;2022-10-17T05:55:45;13.00;99.90
8487;DHT22;4280;50.534;8.708;2022-10-17T05:58:15;13.00;99.90
8487;DHT22;4280;50.534;8.708;2022-10-17T06:00:48;13.00;99.90
8487;DHT22;4280;50.534;8.708;2022-10-17T06:03:19;13.00;99.90
8487;DHT22;4280;50.534;8.708;2022-10-17T06:05:50;13.00;99.90
8487;DHT22;4280;50.534;8.708;2022-10-17T06:08:25;13.00;99.90
8487;DHT22;4280;50.534;8.708;2022-10-17T06:10:55;13.00;99.90
8487;DHT22;4280;50.534;8.708;2022-10-17T06:13:25;13.00;99.90
8487;DHT22;4280;50.534;8.708;2022-10-17T06:15:58;13.00;99.90
8487;DHT22;4280;50.534;8.708;2022-10-17T06:18:28;13.00;99.90
8487;DHT22;4280;50.534;8.708;2022-10-17T06:21:00;13.00;99.90
8487;DHT22;4280;50.534;8.708;2022-10-17T06:23:34;13.00;99.90
8487;DHT22;4280;50.534;8.708;2022-10-17T06:26:13;13.00;99.90
8487;DHT22;4280;50.534;8.708;2022-10-17T06:28:44;13.10;99.90
8487;DHT22;4280;50.534;8.708;2022-10-17T06:31:15;13.10;99.90
8487;DHT22;4280;50.534;8.708;2022-10-17T06:33:46;13.20;99.90
8487;DHT22;4280;50.534;8.708;2022-10-17T06:36:16;13.20;99.90
8487;DHT22;4280;50.534;8.708;2022-10-17T06:38:50;13.20;99.90
8487;DHT22;4280;50.534;8.708;2022-10-17T06:41:30;13.30;99.90
8487;DHT22;4280;50.534;8.708;2022-10-17T06:44:04;13.30;99.90
8487;DHT22;4280;50.534;8.708;2022-10-17T06:47:09;13.40;99.90
8487;DHT22;4280;50.534;8.708;2022-10-17T06:49:42;13.50;99.90
8487;DHT22;4280;50.534;8.708;2022-10-17T06:52:38;13.50;99.90
8487;DHT22;4280;50.534;8.708;2022-10-17T06:55:42;13.70;99.90
8487;DHT22;4280;50.534;8.708;2022-10-17T06:58:19;13.80;99.90
8487;DHT22;4280;50.534;8.708;2022-10-17T07:00:59;13.90;99.90
8487;DHT22;4280;50.534;8.708;2022-10-17T07:03:29;13.90;99.90
8487;DHT22;4280;50.534;8.708;2022-10-17T07:05:59;14.00;99.90
8487;DHT22;4280;50.534;8.708;2022-10-17T07:08:30;14.10;99.90
8487;DHT22;4280;50.534;8.708;2022-10-17T07:11:10;14.30;99.90
8487;DHT22;4280;50.534;8.708;2022-10-17T07:13:41;14.40;99.90
8487;DHT22;4280;50.534;8.708;2022-10-17T07:16:11;14.60;99.90
8487;DHT22;4280;50.534;8.708;2022-10-17T07:18:47;14.70;99.90
8487;DHT22;4280;50.534;8.708;2022-10-17T07:21:18;14.80;99.90
8487;DHT22;4280;50.534;8.708;2022-10-17T07:23:48;14.90;99.90
8487;DHT22;4280;50.534;8.708;2022-10-17T07:26:22;15.00;99.90
8487;DHT22;4280;50.534;8.708;2022-10-17T07:28:53;15.10;99.90
8487;DHT22;4280;50.534;8.708;2022-10-17T07:31:31;15.20;99.90
8487;DHT22;4280;50.534;8.708;2022-10-17T07:34:01;15.30;99.90
8487;DHT22;4280;50.534;8.708;2022-10-17T07:36:31;15.30;99.90
8487;DHT22;4280;50.534;8.708;2022-10-17T07:39:04;15.40;99.90
8487;DHT22;4280;50.534;8.708;2022-10-17T07:41:38;15.50;99.90
8487;DHT22;4280;50.534;8.708;2022-10-17T07:44:09;15.50;99.90
8487;DHT22;4280;50.534;8.708;2022-10-17T07:46:45;15.60;99.90
8487;DHT22;4280;50.534;8.708;2022-10-17T07:49:15;15.70;99.90
8487;DHT22;4280;50.534;8.708;2022-10-17T07:51:46;15.80;99.90
8487;DHT22;4280;50.534;8.708;2022-10-17T07:54:16;15.90;99.90
8487;DHT22;4280;50.534;8.708;2022-10-17T07:56:49;15.90;99.90
8487;DHT22;4280;50.534;8.708;2022-10-17T07:59:19;16.00;99.90
8487;DHT22;4280;50.534;8.708;2022-10-17T08:01:50;16.20;99.90
8487;DHT22;4280;50.534;8.708;2022-10-17T08:04:20;16.30;99.90
8487;DHT22;4280;50.534;8.708;2022-10-17T08:06:50;16.30;99.90
8487;DHT22;4280;50.534;8.708;2022-10-17T08:09:22;16.40;99.90
8487;DHT22;4280;50.534;8.708;2022-10-17T08:11:54;16.50;99.90
8487;DHT22;4280;50.534;8.708;2022-10-17T08:14:24;16.50;99.90
8487;DHT22;4280;50.534;8.708;2022-10-17T08:16:54;16.60;99.90
8487;DHT22;4280;50.534;8.708;2022-10-17T08:19:24;16.70;99.90
8487;DHT22;4280;50.534;8.708;2022-10-17T08:21:54;16.80;99.90
8487;DHT22;4280;50.534;8.708;2022-10-17T08:24:24;17.00;99.90
8487;DHT22;4280;50.534;8.708;2022-10-17T08:26:57;17.00;99.90
8487;DHT22;4280;50.534;8.708;2022-10-17T08:29:27;17.10;99.90
8487;DHT22;4280;50.534;8.708;2022-10-17T08:31:58;17.20;99.90
8487;DHT22;4280;50.534;8.708;2022-10-17T08:34:29;17.20;99.90
8487;DHT22;4280;50.534;8.708;2022-10-17T08:36:59;17.30;99.90
8487;DHT22;4280;50.534;8.708;2022-10-17T08:39:29;17.30;99.90
8487;DHT22;4280;50.534;8.708;2022-10-17T08:42:07;17.30;99.90
8487;DHT22;4280;50.534;8.708;2022-10-17T08:44:48;17.30;99.90
8487;DHT22;4280;50.534;8.708;2022-10-17T08:47:25;17.40;99.90
8487;DHT22;4280;50.534;8.708;2022-10-17T08:49:57;17.50;99.90
8487;DHT22;4280;50.534;8.708;2022-10-17T08:52:31;17.50;99.90
8487;DHT22;4280;50.534;8.708;2022-10-17T08:55:07;17.50;99.90
8487;DHT22;4280;50.534;8.708;2022-10-17T08:58:08;17.60;99.90
8487;DHT22;4280;50.534;8.708;2022-10-17T09:00:42;17.70;99.90
8487;DHT22;4280;50.534;8.708;2022-10-17T09:03:19;17.80;99.90
8487;DHT22;4280;50.534;8.708;2022-10-17T09:05:58;17.90;99.90
8487;DHT22;4280;50.534;8.708;2022-10-17T09:08:38;17.90;99.90
8487;DHT22;4280;50.534;8.708;2022-10-17T09:11:15;18.00;99.90
8487;DHT22;4280;50.534;8.708;2022-10-17T09:13:58;18.10;99.90
8487;DHT22;4280;50.534;8.708;2022-10-17T09:16:35;18.10;99.90
8487;DHT22;4280;50.534;8.708;2022-10-17T09:19:13;18.20;99.90
8487;DHT22;4280;50.534;8.708;2022-10-17T09:21:47;18.20;99.90
8487;DHT22;4280;50.534;8.708;2022-10-17T09:24:22;18.30;99.90
8487;DHT22;4280;50.534;8.708;2022-10-17T09:27:11;18.30;99.90
8487;DHT22;4280;50.534;8.708;2022-10-17T09:29:51;18.40;99.90
8487;DHT22;4280;50.534;8.708;2022-10-17T09:32:24;18.30;99.90
8487;DHT22;4280;50.534;8.708;2022-10-17T09:34:54;18.50;99.90
8487;DHT22;4280;50.534;8.708;2022-10-17T09:37:27;18.60;99.90
8487;DHT22;4280;50.534;8.708;2022-10-17T09:39:59;18.70;99.90
8487;DHT22;4280;50.534;8.708;2022-10-17T09:42:29;18.70;99.90
8487;DHT22;4280;50.534;8.708;2022-10-17T09:45:12;18.70;99.90
8487;DHT22;4280;50.534;8.708;2022-10-17T09:47:46;18.90;99.90
8487;DHT22;4280;50.534;8.708;2022-10-17T09:50:24;18.70;99.90
8487;DHT22;4280;50.534;8.708;2022-10-17T09:52:56;18.80;99.90
8487;DHT22;4280;50.534;8.708;2022-10-17T09:55:31;18.90;99.90
8487;DHT22;4280;50.534;8.708;2022-10-17T09:58:07;18.90;99.90
8487;DHT22;4280;50.534;8.708;2022-10-17T10:00:42;18.90;99.90
8487;DHT22;4280;50.534;8.708;2022-10-17T10:03:15;18.90;99.90
8487;DHT22;4280;50.534;8.708;2022-10-17T10:06:00;19.00;99.90
8487;DHT22;4280;50.534;8.708;2022-10-17T10:08:32;19.00;98.70
8487;DHT22;4280;50.534;8.708;2022-10-17T10:11:05;19.00;99.50
8487;DHT22;4280;50.534;8.708;2022-10-17T10:13:39;19.10;98.70
8487;DHT22;4280;50.534;8.708;2022-10-17T10:16:29;19.10;99.10
8487;DHT22;4280;50.534;8.708;2022-10-17T10:19:00;19.10;99.70
8487;DHT22;4280;50.534;8.708;2022-10-17T10:21:31;19.20;99.90
8487;DHT22;4280;50.534;8.708;2022-10-17T10:24:04;19.30;99.80
8487;DHT22;4280;50.534;8.708;2022-10-17T10:26:40;19.30;98.80
8487;DHT22;4280;50.534;8.708;2022-10-17T10:29:20;19.30;98.80
8487;DHT22;4280;50.534;8.708;2022-10-17T10:31:58;19.30;96.40
8487;DHT22;4280;50.534;8.708;2022-10-17T10:34:36;19.40;96.70
8487;DHT22;4280;50.534;8.708;2022-10-17T10:37:15;19.50;95.50
8487;DHT22;4280;50.534;8.708;2022-10-17T10:39:48;19.60;96.00
8487;DHT22;4280;50.534;8.708;2022-10-17T10:42:23;19.60;96.10
8487;DHT22;4280;50.534;8.708;2022-10-17T10:44:56;19.70;94.50
8487;DHT22;4280;50.534;8.708;2022-10-17T10:47:31;19.70;93.60
8487;DHT22;4280;50.534;8.708;2022-10-17T10:53:10;19.80;92.80
8487;DHT22;4280;50.534;8.708;2022-10-17T10:55:49;19.90;92.20
8487;DHT22;4280;50.534;8.708;2022-10-17T10:58:26;19.90;92.00
8487;DHT22;4280;50.534;8.708;2022-10-17T11:01:03;19.90;91.50
8487;DHT22;4280;50.534;8.708;2022-10-17T11:03:39;19.90;91.10
8487;DHT22;4280;50.534;8.708;2022-10-17T11:06:12;19.90;92.70
8487;DHT22;4280;50.534;8.708;2022-10-17T11:08:46;20.00;91.90
8487;DHT22;4280;50.534;8.708;2022-10-17T11:11:19;20.10;91.60
8487;DHT22;4280;50.534;8.708;2022-10-17T11:13:57;20.20;90.20
8487;DHT22;4280;50.534;8.708;2022-10-17T11:16:30;20.20;89.20
8487;DHT22;4280;50.534;8.708;2022-10-17T11:19:07;20.40;85.50
8487;DHT22;4280;50.534;8.708;2022-10-17T11:21:42;20.40;87.40
8487;DHT22;4280;50.534;8.708;2022-10-17T11:24:17;20.50;87.50
8487;DHT22;4280;50.534;8.708;2022-10-17T11:26:52;20.60;86.20
8487;DHT22;4280;50.534;8.708;2022-10-17T11:29:26;20.60;85.40
8487;DHT22;4280;50.534;8.708;2022-10-17T11:31:59;20.70;85.30
8487;DHT22;4280;50.534;8.708;2022-10-17T11:34:35;20.70;81.60
8487;DHT22;4280;50.534;8.708;2022-10-17T11:37:11;20.80;82.10
8487;DHT22;4280;50.534;8.708;2022-10-17T11:39:45;20.90;80.90
8487;DHT22;4280;50.534;8.708;2022-10-17T11:42:20;21.00;76.80
8487;DHT22;4280;50.534;8.708;2022-10-17T11:44:54;21.00;80.10
8487;DHT22;4280;50.534;8.708;2022-10-17T11:47:30;21.10;76.70
8487;DHT22;4280;50.534;8.708;2022-10-17T11:50:11;21.20;74.20
8487;DHT22;4280;50.534;8.708;2022-10-17T11:53:09;21.20;74.00
8487;DHT22;4280;50.534;8.708;2022-10-17T11:55:41;21.30;76.20
8487;DHT22;4280;50.534;8.708;2022-10-17T11:58:27;21.30;70.60
8487;DHT22;4280;50.534;8.708;2022-10-17T12:01:10;21.30;69.60
8487;DHT22;4280;50.534;8.708;2022-10-17T12:03:47;21.40;69.50
8487;DHT22;4280;50.534;8.708;2022-10-17T12:06:27;21.40;69.50
8487;DHT22;4280;50.534;8.708;2022-10-17T12:09:06;21.40;70.50
8487;DHT22;4280;50.534;8.708;2022-10-17T12:11:41;21.40;73.70
8487;DHT22;4280;50.534;8.708;2022-10-17T12:14:36;21.50;69.70
8487;DHT22;4280;50.534;8.708;2022-10-17T12:23:01;21.40;66.90
8487;DHT22;4280;50.534;8.708;2022-10-17T12:25:34;21.30;69.00
8487;DHT22;4280;50.534;8.708;2022-10-17T12:28:29;21.20;67.40
8487;DHT22;4280;50.534;8.708;2022-10-17T12:31:00;21.10;69.20
8487;DHT22;4280;50.534;8.708;2022-10-17T12:33:32;21.10;69.30
8487;DHT22;4280;50.534;8.708;2022-10-17T12:42:32;21.50;69.60
8487;DHT22;4280;50.534;8.708;2022-10-17T12:51:24;21.70;62.40
8487;DHT22;4280;50.534;8.708;2022-10-17T12:54:01;21.70;62.90
8487;DHT22;4280;50.534;8.708;2022-10-17T12:56:39;21.60;60.40
8487;DHT22;4280;50.534;8.708;2022-10-17T12:59:15;21.60;64.00
8487;DHT22;4280;50.534;8.708;2022-10-17T13:01:50;21.60;64.10
8487;DHT22;4280;50.534;8.708;2022-10-17T13:04:22;21.70;64.10
8487;DHT22;4280;50.534;8.708;2022-10-17T13:06:53;21.70;64.50
8487;DHT22;4280;50.534;8.708;2022-10-17T13:09:25;21.70;62.00
8487;DHT22;4280;50.534;8.708;2022-10-17T13:11:57;21.80;64.40
8487;DHT22;4280;50.534;8.708;2022-10-17T13:14:31;21.90;64.20
8487;DHT22;4280;50.534;8.708;2022-10-17T13:17:04;22.00;60.70
8487;DHT22;4280;50.534;8.708;2022-10-17T13:19:39;22.00;63.00
8487;DHT22;4280;50.534;8.708;2022-10-17T13:22:12;22.10;64.80
8487;DHT22;4280;50.534;8.708;2022-10-17T13:24:44;22.20;64.80
8487;DHT22;4280;50.534;8.708;2022-10-17T13:27:22;22.30;64.80
8487;DHT22;4280;50.534;8.708;2022-10-17T13:29:57;22.50;59.10
8487;DHT22;4280;50.534;8.708;2022-10-17T13:32:33;22.40;61.70
8487;DHT22;4280;50.534;8.708;2022-10-17T13:35:06;22.30;62.00
8487;DHT22;4280;50.534;8.708;2022-10-17T13:37:38;22.30;63.50
8487;DHT22;4280;50.534;8.708;2022-10-17T13:40:14;22.20;58.80
8487;DHT22;4280;50.534;8.708;2022-10-17T13:43:09;22.10;63.30
8487;DHT22;4280;50.534;8.708;2022-10-17T13:45:48;22.20;65.40
8487;DHT22;4280;50.534;8.708;2022-10-17T13:48:19;22.30;63.20
8487;DHT22;4280;50.534;8.708;2022-10-17T13:50:53;22.60;59.20
8487;DHT22;4280;50.534;8.708;2022-10-17T13:53:28;22.80;59.90
8487;DHT22;4280;50.534;8.708;2022-10-17T13:56:00;22.90;61.20
8487;DHT22;4280;50.534;8.708;2022-10-17T13:58:49;23.00;59.60
8487;DHT22;4280;50.534;8.708;2022-10-17T14:01:26;23.00;59.60
8487;DHT22;4280;50.534;8.708;2022-10-17T14:03:57;22.80;59.40
8487;DHT22;4280;50.534;8.708;2022-10-17T14:06:43;22.80;59.40
8487;DHT22;4280;50.534;8.708;2022-10-17T14:09:16;22.70;58.50
8487;DHT22;4280;50.534;8.708;2022-10-17T14:11:58;22.60;59.20
8487;DHT22;4280;50.534;8.708;2022-10-17T14:14:33;22.60;59.20
8487;DHT22;4280;50.534;8.708;2022-10-17T14:17:22;22.50;59.10
8487;DHT22;4280;50.534;8.708;2022-10-17T14:19:54;22.50;59.10
8487;DHT22;4280;50.534;8.708;2022-10-17T14:22:50;22.50;56.00
8487;DHT22;4280;50.534;8.708;2022-10-17T14:25:43;22.40;58.80
8487;DHT22;4280;50.534;8.708;2022-10-17T14:28:14;22.40;61.50
8487;DHT22;4280;50.534;8.708;2022-10-17T14:30:47;22.30;61.60
8487;DHT22;4280;50.534;8.708;2022-10-17T14:33:27;22.20;61.60
8487;DHT22;4280;50.534;8.708;2022-10-17T14:35:59;22.40;59.00
8487;DHT22;4280;50.534;8.708;2022-10-17T14:38:31;22.30;58.90
8487;DHT22;4280;50.534;8.708;2022-10-17T14:41:02;22.20;61.60
8487;DHT22;4280;50.534;8.708;2022-10-17T14:43:58;22.10;61.20
8487;DHT22;4280;50.534;8.708;2022-10-17T14:46:29;22.00;61.20
8487;DHT22;4280;50.534;8.708;2022-10-17T14:49:13;21.90;59.90
8487;DHT22;4280;50.534;8.708;2022-10-17T14:54:41;21.90;52.70
8487;DHT22;4280;50.534;8.708;2022-10-17T14:57:21;21.90;52.70
8487;DHT22;4280;50.534;8.708;2022-10-17T14:59:55;21.80;53.70
8487;DHT22;4280;50.534;8.708;2022-10-17T15:02:27;21.80;55.00
8487;DHT22;4280;50.534;8.708;2022-10-17T15:05:02;21.80;57.30
8487;DHT22;4280;50.534;8.708;2022-10-17T15:07:38;21.70;58.40
8487;DHT22;4280;50.534;8.708;2022-10-17T15:10:16;21.60;59.00
8487;DHT22;4280;50.534;8.708;2022-10-17T15:12:55;21.60;60.60
8487;DHT22;4280;50.534;8.708;2022-10-17T15:15:50;21.50;63.20
8487;DHT22;4280;50.534;8.708;2022-10-17T15:18:22;21.40;69.50
8487;DHT22;4280;50.534;8.708;2022-10-17T15:20:59;21.40;70.50
8487;DHT22;4280;50.534;8.708;2022-10-17T15:23:38;21.30;74.50
8487;DHT22;4280;50.534;8.708;2022-10-17T15:26:12;21.20;79.10
8487;DHT22;4280;50.534;8.708;2022-10-17T15:28:44;21.10;80.20
8487;DHT22;4280;50.534;8.708;2022-10-17T15:31:16;21.00;80.20
8487;DHT22;4280;50.534;8.708;2022-10-17T15:33:50;20.90;83.80
8487;DHT22;4280;50.534;8.708;2022-10-17T15:36:26;20.80;85.70
8487;DHT22;4280;50.534;8.708;2022-10-17T15:38:59;20.80;87.00
8487;DHT22;4280;50.534;8.708;2022-10-17T15:41:31;20.80;87.00
8487;DHT22;4280;50.534;8.708;2022-10-17T15:44:03;20.80;84.10
8487;DHT22;4280;50.534;8.708;2022-10-17T15:46:39;20.80;81.40
8487;DHT22;4280;50.534;8.708;2022-10-17T15:52:00;20.80;81.90
8487;DHT22;4280;50.534;8.708;2022-10-17T15:54:32;20.80;84.30
8487;DHT22;4280;50.534;8.708;2022-10-17T15:57:02;20.70;86.20
8487;DHT22;4280;50.534;8.708;2022-10-17T15:59:32;20.60;88.70
8487;DHT22;4280;50.534;8.708;2022-10-17T16:02:03;20.50;89.70
8487;DHT22;4280;50.534;8.708;2022-10-17T16:04:36;20.40;90.10
8487;DHT22;4280;50.534;8.708;2022-10-17T16:07:09;20.30;90.30
8487;DHT22;4280;50.534;8.708;2022-10-17T16:09:39;20.20;90.30
8487;DHT22;4280;50.534;8.708;2022-10-17T16:12:10;20.10;92.00
8487;DHT22;4280;50.534;8.708;2022-10-17T16:14:42;19.90;94.30
8487;DHT22;4280;50.534;8.708;2022-10-17T16:17:13;19.80;94.50
8487;DHT22;4280;50.534;8.708;2022-10-17T16:19:44;19.70;94.40
8487;DHT22;4280;50.534;8.708;2022-10-17T16:22:19;19.60;94.60
8487;DHT22;4280;50.534;8.708;2022-10-17T16:24:49;19.50;95.70
8487;DHT22;4280;50.534;8.708;2022-10-17T16:27:24;19.40;98.00
8487;DHT22;4280;50.534;8.708;2022-10-17T16:29:54;19.40;94.70
8487;DHT22;4280;50.534;8.708;2022-10-17T16:32:24;19.30;96.00
8487;DHT22;4280;50.534;8.708;2022-10-17T16:34:54;19.20;96.30
8487;DHT22;4280;50.534;8.708;2022-10-17T16:37:28;19.10;97.00
8487;DHT22;4280;50.534;8.708;2022-10-17T16:39:58;19.00;97.60
8487;DHT22;4280;50.534;8.708;2022-10-17T16:42:29;18.90;98.60
8487;DHT22;4280;50.534;8.708;2022-10-17T16:44:59;18.90;98.90
8487;DHT22;4280;50.534;8.708;2022-10-17T16:47:29;18.90;99.90
8487;DHT22;4280;50.534;8.708;2022-10-17T16:49:59;18.90;99.90
8487;DHT22;4280;50.534;8.708;2022-10-17T16:52:32;18.90;99.90
8487;DHT22;4280;50.534;8.708;2022-10-17T16:55:02;18.90;99.90
8487;DHT22;4280;50.534;8.708;2022-10-17T16:57:32;18.80;99.90
8487;DHT22;4280;50.534;8.708;2022-10-17T17:00:03;18.80;99.90
8487;DHT22;4280;50.534;8.708;2022-10-17T17:02:33;18.70;99.90
8487;DHT22;4280;50.534;8.708;2022-10-17T17:05:04;18.60;99.90
8487;DHT22;4280;50.534;8.708;2022-10-17T17:07:37;18.50;99.90
8487;DHT22;4280;50.534;8.708;2022-10-17T17:10:08;18.40;99.90
8487;DHT22;4280;50.534;8.708;2022-10-17T17:12:38;18.30;99.90
8487;DHT22;4280;50.534;8.708;2022-10-17T17:15:08;18.20;99.90
8487;DHT22;4280;50.534;8.708;2022-10-17T17:17:39;18.10;99.90
8487;DHT22;4280;50.534;8.708;2022-10-17T17:20:19;18.00;99.90
8487;DHT22;4280;50.534;8.708;2022-10-17T17:22:51;18.00;99.90
8487;DHT22;4280;50.534;8.708;2022-10-17T17:25:21;17.90;99.90
8487;DHT22;4280;50.534;8.708;2022-10-17T17:27:51;17.90;99.90
8487;DHT22;4280;50.534;8.708;2022-10-17T17:30:22;17.80;99.90
8487;DHT22;4280;50.534;8.708;2022-10-17T17:32:52;17.80;99.90
8487;DHT22;4280;50.534;8.708;2022-10-17T17:35:22;17.70;99.90
8487;DHT22;4280;50.534;8.708;2022-10-17T17:37:55;17.70;99.90
8487;DHT22;4280;50.534;8.708;2022-10-17T17:40:25;17.60;99.90
8487;DHT22;4280;50.534;8.708;2022-10-17T17:42:55;17.50;99.90
8487;DHT22;4280;50.534;8.708;2022-10-17T17:45:26;17.40;99.90
8487;DHT22;4280;50.534;8.708;2022-10-17T17:47:56;17.40;99.90
8487;DHT22;4280;50.534;8.708;2022-10-17T17:50:26;17.30;99.90
8487;DHT22;4280;50.534;8.708;2022-10-17T17:53:00;17.20;99.90
8487;DHT22;4280;50.534;8.708;2022-10-17T17:55:31;17.10;99.90
8487;DHT22;4280;50.534;8.708;2022-10-17T17:58:02;17.00;99.90
8487;DHT22;4280;50.534;8.708;2022-10-17T18:00:35;17.00;99.90
8487;DHT22;4280;50.534;8.708;2022-10-17T18:03:06;17.00;99.90
8487;DHT22;4280;50.534;8.708;2022-10-17T18:05:38;16.90;99.90
8487;DHT22;4280;50.534;8.708;2022-10-17T18:08:13;16.90;99.90